createdAt,value
2022-08-02T00:00:12.067Z,65.08
2022-08-02T00:02:38.865Z,66.13
2022-08-02T00:05:05.941Z,66.37
2022-08-02T00:07:36.341Z,65.96
2022-08-02T00:10:07.127Z,64.12
2022-08-02T00:12:33.818Z,65.02
2022-08-02T00:15:00.437Z,65.55
2022-08-02T00:17:27.268Z,66.84
2022-08-02T00:19:53.946Z,66.50
2022-08-02T00:22:20.561Z,66.28
2022-08-02T00:24:47.170Z,66.20
2022-08-02T00:27:13.830Z,66.46
2022-08-02T00:29:42.449Z,65.81
2022-08-02T00:32:19.027Z,66.20
2022-08-02T00:34:45.629Z,66.18
2022-08-02T00:37:12.232Z,66.93
2022-08-02T00:39:39.013Z,66.37
2022-08-02T00:42:05.848Z,67.64
2022-08-02T00:44:32.503Z,67.64
2022-08-02T00:46:59.156Z,67.83
2022-08-02T00:49:25.890Z,69.25
2022-08-02T00:51:53.217Z,69.66
2022-08-02T00:54:20.820Z,68.58
2022-08-02T00:56:49.487Z,68.94
2022-08-02T00:59:18.693Z,68.75
2022-08-02T01:01:56.914Z,68.80
2022-08-02T01:04:30.087Z,67.94
2022-08-02T01:07:01.169Z,68.50
2022-08-02T01:09:27.949Z,68.51
2022-08-02T01:11:54.812Z,68.31
2022-08-02T01:14:22.335Z,68.39
2022-08-02T01:16:58.138Z,68.11
2022-08-02T01:19:43.335Z,68.53
2022-08-02T01:22:16.860Z,69.88
2022-08-02T01:25:08.146Z,70.12
2022-08-02T01:28:00.369Z,70.69
2022-08-02T01:30:29.974Z,69.96
2022-08-02T01:33:01.912Z,70.88
2022-08-02T01:35:47.234Z,69.55
2022-08-02T01:38:26.356Z,70.27
2022-08-02T01:40:55.965Z,72.11
2022-08-02T01:43:24.556Z,72.86
2022-08-02T01:45:53.330Z,71.85
2022-08-02T01:48:21.904Z,72.81
2022-08-02T01:50:50.073Z,73.36
2022-08-02T01:53:20.557Z,71.83
2022-08-02T01:55:58.439Z,71.86
2022-08-02T01:58:29.643Z,72.47
2022-08-02T02:00:58.064Z,72.21
2022-08-02T02:03:27.798Z,72.51
2022-08-02T02:05:57.257Z,70.69
2022-08-02T02:08:28.245Z,71.21
2022-08-02T02:10:56.893Z,71.05
2022-08-02T02:13:33.297Z,70.65
2022-08-02T02:16:04.503Z,71.01
2022-08-02T02:18:34.635Z,72.60
2022-08-02T02:21:01.318Z,72.02
2022-08-02T02:23:28.821Z,72.22
2022-08-02T02:26:04.414Z,71.55
2022-08-02T02:28:32.895Z,70.82
2022-08-02T02:31:07.504Z,71.73
2022-08-02T02:33:39.966Z,71.85
2022-08-02T02:36:08.881Z,72.02
2022-08-02T02:38:36.808Z,73.50
2022-08-02T02:41:05.575Z,73.37
2022-08-02T02:43:34.475Z,75.41
2022-08-02T02:46:04.849Z,75.09
2022-08-02T02:48:32.114Z,73.52
2022-08-02T02:51:00.742Z,73.20
2022-08-02T02:53:29.795Z,73.20
2022-08-02T02:56:20.489Z,73.09
2022-08-02T02:58:48.541Z,74.17
2022-08-02T03:01:16.147Z,74.23
2022-08-02T03:03:44.513Z,73.65
2022-08-02T03:06:15.034Z,74.42
2022-08-02T03:08:42.572Z,74.54
2022-08-02T03:11:10.173Z,74.63
2022-08-02T03:13:38.013Z,74.51
2022-08-02T03:16:05.408Z,76.30
2022-08-02T03:18:40.785Z,75.97
2022-08-02T03:21:12.918Z,76.32
2022-08-02T03:23:42.260Z,77.24
2022-08-02T03:26:10.048Z,77.90
2022-08-02T03:28:36.780Z,78.15
2022-08-02T03:31:03.843Z,78.71
2022-08-02T03:33:30.724Z,80.20
2022-08-02T03:36:04.316Z,80.73
2022-08-02T03:38:34.303Z,80.03
2022-08-02T03:41:02.658Z,80.71
2022-08-02T03:43:30.891Z,81.23
2022-08-02T03:45:58.913Z,82.49
2022-08-02T03:48:34.469Z,81.13
2022-08-02T03:51:02.835Z,79.79
2022-08-02T03:53:30.550Z,79.61
2022-08-02T03:55:58.033Z,78.27
2022-08-02T03:58:25.469Z,77.49
2022-08-02T04:00:54.027Z,79.11
2022-08-02T04:03:20.812Z,80.51
2022-08-02T04:06:03.774Z,81.44
2022-08-02T04:08:37.560Z,80.49
2022-08-02T04:11:05.153Z,79.33
2022-08-02T04:13:35.920Z,78.88
2022-08-02T04:16:07.181Z,79.55
2022-08-02T04:18:40.574Z,78.72
2022-08-02T04:21:12.602Z,78.42
2022-08-02T04:23:40.934Z,77.18
2022-08-02T04:26:08.748Z,77.92
2022-08-02T04:28:37.996Z,79.52
2022-08-02T04:31:06.488Z,79.93
2022-08-02T04:33:34.965Z,79.84
2022-08-02T04:36:02.413Z,80.36
2022-08-02T04:38:29.155Z,79.81
2022-08-02T04:40:56.149Z,79.81
2022-08-02T04:43:23.866Z,80.16
2022-08-02T04:45:53.634Z,79.30
2022-08-02T04:48:21.872Z,77.80
2022-08-02T04:50:48.565Z,80.34
2022-08-02T04:53:15.257Z,77.88
2022-08-02T04:55:42.031Z,78.91
2022-08-02T04:58:36.992Z,79.38
2022-08-02T05:00:55.495Z,79.65
2022-08-02T05:03:22.150Z,79.31
2022-08-02T05:05:48.757Z,78.86
2022-08-02T05:08:15.379Z,79.21
2022-08-02T05:10:42.081Z,78.25
2022-08-02T05:13:08.696Z,78.82
2022-08-02T05:15:35.375Z,78.37
2022-08-02T05:18:02.058Z,78.21
2022-08-02T05:20:28.729Z,76.87
2022-08-02T05:22:55.381Z,77.62
2022-08-02T05:25:22.022Z,77.10
2022-08-02T05:27:48.887Z,75.55
2022-08-02T05:30:15.736Z,75.98
2022-08-02T05:32:49.491Z,75.45
2022-08-02T05:35:21.094Z,74.95
2022-08-02T05:37:48.962Z,76.08
2022-08-02T05:40:16.023Z,75.65
2022-08-02T05:42:43.677Z,73.72
2022-08-02T05:45:10.760Z,74.41
2022-08-02T05:47:38.402Z,73.79
2022-08-02T05:50:07.718Z,71.94
2022-08-02T05:53:01.587Z,72.19
2022-08-02T05:55:34.462Z,72.18
2022-08-02T05:58:16.140Z,72.04
2022-08-02T06:00:45.469Z,71.21
2022-08-02T06:03:25.181Z,71.93
2022-08-02T06:06:00.476Z,72.22
2022-08-02T06:08:35.464Z,70.62
2022-08-02T06:11:02.634Z,70.92
2022-08-02T06:13:29.528Z,69.92
2022-08-02T06:15:57.778Z,69.30
2022-08-02T06:18:28.882Z,68.99
2022-08-02T06:22:33.326Z,69.86
2022-08-02T06:23:57.692Z,68.15
2022-08-02T06:26:27.621Z,70.07
2022-08-02T06:28:57.381Z,67.67
2022-08-02T06:31:24.511Z,67.74
2022-08-02T06:33:51.129Z,67.30
2022-08-02T06:36:43.499Z,66.25
2022-08-02T06:39:20.936Z,67.18
2022-08-02T06:41:50.038Z,66.54
2022-08-02T06:44:45.666Z,66.25
2022-08-02T06:47:11.648Z,65.67
2022-08-02T06:49:52.979Z,66.93
2022-08-02T06:52:30.649Z,64.77
2022-08-02T06:55:01.726Z,65.17
2022-08-02T06:57:29.875Z,66.03
2022-08-02T06:59:57.548Z,61.08
2022-08-02T07:02:24.444Z,61.67
2022-08-02T07:04:51.112Z,61.50
2022-08-02T07:07:17.931Z,57.79
2022-08-02T07:09:56.696Z,58.81
2022-08-02T07:12:29.128Z,56.74
2022-08-02T07:14:55.880Z,55.01
2022-08-02T07:17:22.497Z,56.30
2022-08-02T07:19:49.210Z,51.74
2022-08-02T07:22:16.192Z,54.46
2022-08-02T07:24:43.122Z,54.16
2022-08-02T07:27:11.686Z,50.13
2022-08-02T07:29:46.039Z,49.70
2022-08-02T07:32:15.509Z,47.72
2022-08-02T07:34:42.971Z,49.02
2022-08-02T07:37:20.577Z,48.99
2022-08-02T07:40:04.683Z,49.81
2022-08-02T07:42:33.222Z,47.67
2022-08-02T07:44:59.914Z,46.05
2022-08-02T07:47:26.625Z,47.29
2022-08-02T07:49:53.330Z,47.46
2022-08-02T07:52:20.122Z,48.79
2022-08-02T07:54:46.824Z,48.69
2022-08-02T07:57:13.775Z,46.83
2022-08-02T07:59:40.410Z,44.79
2022-08-02T08:02:07.177Z,42.73
2022-08-02T08:04:33.877Z,44.96
2022-08-02T08:07:00.497Z,44.50
2022-08-02T08:09:27.273Z,46.35
2022-08-02T08:11:53.953Z,41.83
2022-08-02T08:14:20.592Z,45.07
2022-08-02T08:16:47.255Z,43.26
2022-08-02T08:19:13.872Z,43.90
2022-08-02T08:21:40.493Z,44.67
2022-08-02T08:24:07.415Z,42.49
2022-08-02T08:26:34.041Z,41.07
2022-08-02T08:29:00.717Z,43.25
2022-08-02T08:31:27.472Z,42.36
2022-08-02T08:33:54.139Z,41.20
2022-08-02T08:36:20.766Z,41.93
2022-08-02T08:38:47.532Z,42.44
2022-08-02T08:41:16.541Z,44.03
2022-08-02T08:43:43.797Z,39.61
2022-08-02T08:46:15.245Z,40.71
2022-08-02T08:48:47.028Z,42.99
2022-08-02T08:51:18.003Z,40.52
2022-08-02T08:53:48.929Z,40.79
2022-08-02T08:56:16.837Z,42.49
2022-08-02T08:58:45.090Z,40.49
2022-08-02T09:01:13.586Z,42.17
2022-08-02T09:03:40.370Z,41.67
2022-08-02T09:06:07.265Z,40.04
2022-08-02T09:08:33.899Z,40.34
2022-08-02T09:11:00.644Z,42.84
2022-08-02T09:13:38.473Z,39.73
2022-08-02T09:16:14.209Z,40.42
2022-08-02T09:18:46.671Z,40.41
2022-08-02T09:21:16.556Z,40.94
2022-08-02T09:23:48.462Z,39.53
2022-08-02T09:26:20.608Z,39.33
2022-08-02T09:28:52.576Z,40.34
2022-08-02T09:31:21.914Z,38.86
2022-08-02T09:33:57.197Z,40.21
2022-08-02T09:36:25.084Z,40.28
2022-08-02T09:39:00.958Z,37.43
2022-08-02T09:41:29.570Z,41.27
2022-08-02T09:44:05.413Z,38.04
2022-08-02T09:46:36.264Z,37.74
2022-08-02T09:49:11.491Z,38.82
2022-08-02T09:51:50.434Z,37.73
2022-08-02T09:54:18.578Z,37.68
2022-08-02T09:56:50.567Z,39.29
2022-08-02T09:59:19.350Z,36.86
2022-08-02T10:01:50.577Z,38.38
2022-08-02T10:04:28.203Z,37.47
2022-08-02T10:06:54.924Z,38.14
2022-08-02T10:09:22.431Z,37.61
2022-08-02T10:11:49.141Z,38.32
2022-08-02T10:14:15.824Z,37.22
2022-08-02T10:16:43.977Z,37.38
2022-08-02T10:19:10.835Z,36.58
2022-08-02T10:21:46.888Z,35.65
2022-08-02T10:24:20.510Z,34.93
2022-08-02T10:26:48.526Z,36.09
2022-08-02T10:29:17.786Z,36.78
2022-08-02T10:31:54.440Z,36.86
2022-08-02T10:34:31.789Z,34.27
2022-08-02T10:37:04.983Z,36.26
2022-08-02T10:39:46.660Z,36.52
2022-08-02T10:42:44.355Z,36.27
2022-08-02T10:45:13.490Z,36.15
2022-08-02T10:47:40.096Z,35.89
2022-08-02T10:50:07.303Z,34.19
2022-08-02T10:52:34.058Z,37.09
2022-08-02T10:55:13.265Z,33.77
2022-08-02T10:57:41.383Z,35.58
2022-08-02T11:00:24.288Z,38.44
2022-08-02T11:02:53.259Z,33.08
2022-08-02T11:05:43.076Z,36.08
2022-08-02T11:08:21.266Z,35.58
2022-08-02T11:10:48.228Z,38.14
2022-08-02T11:13:17.219Z,35.26
2022-08-02T11:15:55.279Z,35.74
2022-08-02T11:18:24.449Z,35.81
2022-08-02T11:21:31.133Z,34.43
2022-08-02T11:24:24.223Z,35.30
2022-08-02T11:26:51.872Z,33.89
2022-08-02T11:29:18.740Z,36.19
2022-08-02T11:31:47.510Z,36.48
2022-08-02T11:34:37.051Z,34.16
2022-08-02T11:37:03.710Z,34.75
2022-08-02T11:39:30.349Z,35.53
2022-08-02T11:41:59.365Z,35.71
2022-08-02T11:44:27.751Z,35.39
2022-08-02T11:47:03.783Z,33.20
2022-08-02T11:49:30.474Z,32.72
2022-08-02T11:52:01.877Z,32.19
2022-08-02T11:54:35.254Z,34.66
2022-08-02T11:57:22.193Z,33.10
2022-08-02T11:59:51.603Z,34.23
2022-08-02T12:02:20.281Z,33.10
2022-08-02T12:05:00.451Z,32.66
2022-08-02T12:07:35.368Z,33.58
2022-08-02T12:10:08.146Z,33.77
2022-08-02T12:12:55.203Z,32.24
2022-08-02T12:15:43.571Z,32.09
2022-08-02T12:18:12.250Z,31.21
2022-08-02T12:20:38.871Z,31.60
2022-08-02T12:23:05.617Z,31.18
2022-08-02T12:25:34.161Z,32.48
2022-08-02T12:28:17.864Z,32.57
2022-08-02T12:30:57.631Z,31.33
2022-08-02T12:33:29.840Z,31.44
2022-08-02T12:35:56.604Z,34.74
2022-08-02T12:38:23.287Z,33.82
2022-08-02T12:40:50.201Z,32.47
2022-08-02T12:43:23.960Z,31.63
2022-08-02T12:45:53.131Z,31.49
2022-08-02T12:48:42.703Z,31.58
2022-08-02T12:51:56.903Z,31.65
2022-08-02T12:54:31.409Z,31.99
2022-08-02T12:57:14.014Z,31.52
2022-08-02T12:59:42.557Z,31.55
2022-08-02T13:02:12.581Z,32.49
2022-08-02T13:04:41.478Z,30.83
2022-08-02T13:07:10.190Z,31.36
2022-08-02T13:09:41.808Z,30.31
2022-08-02T13:12:09.122Z,32.26
2022-08-02T13:14:39.917Z,31.77
2022-08-02T13:17:10.117Z,32.76
2022-08-02T13:19:37.469Z,31.87
2022-08-02T13:22:04.350Z,33.13
2022-08-02T13:24:38.203Z,33.39
2022-08-02T13:27:08.607Z,31.54
2022-08-02T13:29:37.275Z,33.89
2022-08-02T13:32:04.134Z,32.01
2022-08-02T13:34:30.768Z,34.23
2022-08-02T13:36:57.398Z,33.44
2022-08-02T13:39:24.033Z,33.62
2022-08-02T13:41:50.705Z,34.27
2022-08-02T13:44:17.361Z,31.38
2022-08-02T13:46:45.603Z,32.15
2022-08-02T13:49:19.350Z,33.50
2022-08-02T13:51:47.481Z,31.45
2022-08-02T13:54:14.844Z,33.10
2022-08-02T13:56:41.517Z,33.73
2022-08-02T13:59:55.285Z,33.04
2022-08-02T14:01:55.652Z,33.63
2022-08-02T14:04:22.906Z,34.20
2022-08-02T14:06:49.678Z,33.67
2022-08-02T14:09:17.247Z,34.09
2022-08-02T14:11:45.257Z,33.02
2022-08-02T14:14:15.925Z,32.91
2022-08-02T14:16:44.595Z,33.38
2022-08-02T14:19:16.268Z,33.15
2022-08-02T14:21:48.777Z,32.77
2022-08-02T14:24:20.456Z,31.50
2022-08-02T14:26:48.453Z,32.76
2022-08-02T14:29:18.013Z,31.39
2022-08-02T14:31:45.215Z,32.51
2022-08-02T14:34:15.021Z,31.93
2022-08-02T14:36:42.071Z,31.42
2022-08-02T14:39:09.017Z,32.51
2022-08-02T14:41:58.033Z,32.40
2022-08-02T14:44:22.463Z,33.51
2022-08-02T14:46:51.606Z,32.32
2022-08-02T14:49:25.121Z,31.38
2022-08-02T14:51:53.557Z,32.20
2022-08-02T14:54:20.250Z,31.19
2022-08-02T14:56:56.072Z,31.22
2022-08-02T14:59:23.003Z,31.36
2022-08-02T15:01:49.671Z,31.28
2022-08-02T15:04:16.398Z,30.96
2022-08-02T15:06:43.055Z,32.55
2022-08-02T15:09:09.841Z,30.53
2022-08-02T15:11:47.129Z,32.39
2022-08-02T15:14:25.583Z,30.42
2022-08-02T15:16:58.563Z,29.79
2022-08-02T15:19:55.936Z,30.70
2022-08-02T15:22:15.986Z,29.69
2022-08-02T15:24:44.635Z,31.08
2022-08-02T15:27:11.337Z,30.08
2022-08-02T15:29:38.157Z,30.60
2022-08-02T15:32:05.040Z,30.99
2022-08-02T15:34:31.668Z,31.40
2022-08-02T15:36:58.344Z,30.22
2022-08-02T15:39:25.179Z,30.39
2022-08-02T15:41:51.809Z,30.77
2022-08-02T15:44:18.629Z,30.27
2022-08-02T15:46:45.277Z,31.88
2022-08-02T15:49:12.079Z,29.62
2022-08-02T15:51:38.811Z,29.87
2022-08-02T15:54:05.487Z,31.17
2022-08-02T15:56:32.195Z,31.61
2022-08-02T15:58:59.035Z,31.41
2022-08-02T16:01:36.986Z,30.84
2022-08-02T16:04:06.849Z,29.53
2022-08-02T16:06:34.878Z,29.39
2022-08-02T16:09:02.072Z,29.54
2022-08-02T16:11:28.709Z,28.00
2022-08-02T16:13:55.656Z,29.11
2022-08-02T16:16:27.630Z,29.75
2022-08-02T16:18:54.772Z,28.67
2022-08-02T16:21:22.423Z,29.16
2022-08-02T16:23:58.576Z,30.28
2022-08-02T16:26:30.716Z,29.46
2022-08-02T16:28:58.777Z,30.77
2022-08-02T16:31:25.495Z,28.80
2022-08-02T16:33:56.043Z,29.90
2022-08-02T16:36:25.078Z,29.99
2022-08-02T16:38:53.311Z,28.46
2022-08-02T16:41:23.732Z,28.88
2022-08-02T16:44:10.354Z,28.16
2022-08-02T16:46:37.381Z,28.09
2022-08-02T16:49:04.279Z,27.53
2022-08-02T16:51:31.161Z,28.71
2022-08-02T16:54:00.015Z,29.27
2022-08-02T16:56:28.796Z,28.91
2022-08-02T16:59:00.015Z,29.01
2022-08-02T17:02:01.794Z,30.15
2022-08-02T17:04:15.673Z,28.34
2022-08-02T17:06:47.627Z,28.98
2022-08-02T17:10:02.119Z,28.32
2022-08-02T17:12:13.495Z,29.66
2022-08-02T17:14:54.989Z,30.43
2022-08-02T17:17:34.045Z,29.88
2022-08-02T17:20:02.143Z,31.23
2022-08-02T17:22:29.043Z,30.73
2022-08-02T17:24:56.072Z,30.31
2022-08-02T17:27:22.913Z,30.47
2022-08-02T17:29:49.723Z,31.92
2022-08-02T17:32:16.731Z,31.95
2022-08-02T17:34:49.110Z,32.21
2022-08-02T17:37:28.410Z,31.45
2022-08-02T17:39:55.768Z,32.73
2022-08-02T17:42:24.119Z,32.33
2022-08-02T17:47:43.278Z,32.72
2022-08-02T17:50:29.953Z,33.07
2022-08-02T17:52:56.825Z,33.06
2022-08-02T17:55:23.686Z,33.62
2022-08-02T17:57:57.488Z,32.89
2022-08-02T18:00:33.647Z,34.94
2022-08-02T18:03:01.735Z,36.08
2022-08-02T18:05:39.374Z,36.00
2022-08-02T18:08:18.335Z,36.75
2022-08-02T18:10:47.895Z,36.80
2022-08-02T18:13:14.832Z,36.22
2022-08-02T18:15:41.603Z,35.84
2022-08-02T18:18:13.180Z,36.74
2022-08-02T18:20:41.131Z,35.87
2022-08-02T18:23:13.636Z,36.81
2022-08-02T18:25:45.956Z,37.58
2022-08-02T18:28:28.084Z,36.57
2022-08-02T18:30:54.716Z,37.82
2022-08-02T18:33:58.192Z,37.87
2022-08-02T18:36:10.215Z,38.94
2022-08-02T18:38:51.580Z,39.15
2022-08-02T18:41:19.138Z,39.49
2022-08-02T18:43:48.784Z,40.52
2022-08-02T18:46:17.218Z,38.32
2022-08-02T18:48:47.829Z,38.51
2022-08-02T18:51:18.785Z,37.65
2022-08-02T18:54:04.199Z,36.87
2022-08-02T18:56:32.709Z,38.28
2022-08-02T18:58:59.611Z,37.98
2022-08-02T19:01:33.673Z,37.93
2022-08-02T19:04:03.872Z,36.79
2022-08-02T19:06:30.654Z,36.23
2022-08-02T19:09:05.497Z,37.73
2022-08-02T19:11:37.174Z,35.78
2022-08-02T19:14:03.988Z,34.95
2022-08-02T19:16:36.793Z,36.03
2022-08-02T19:19:07.909Z,36.16
2022-08-02T19:22:16.549Z,38.38
2022-08-02T19:24:21.865Z,37.63
2022-08-02T19:26:51.967Z,38.38
2022-08-02T19:29:42.074Z,39.08
2022-08-02T19:32:42.790Z,40.35
2022-08-02T19:34:56.303Z,41.11
2022-08-02T19:37:23.001Z,38.45
2022-08-02T19:39:50.454Z,39.79
2022-08-02T19:42:18.718Z,39.28
2022-08-02T19:44:46.541Z,39.31
2022-08-02T19:47:19.161Z,39.48
2022-08-02T19:49:48.925Z,41.47
2022-08-02T19:52:21.883Z,40.48
2022-08-02T19:54:55.562Z,42.11
2022-08-02T19:57:24.954Z,41.45
2022-08-02T19:59:53.854Z,42.52
2022-08-02T20:02:21.358Z,42.03
2022-08-02T20:04:50.470Z,41.33
2022-08-02T20:07:54.479Z,42.43
2022-08-02T20:10:11.285Z,41.81
2022-08-02T20:12:41.710Z,41.73
2022-08-02T20:15:15.413Z,41.74
2022-08-02T20:17:46.446Z,41.35
2022-08-02T20:20:15.281Z,42.05
2022-08-02T20:22:41.918Z,41.82
2022-08-02T20:25:10.321Z,41.23
2022-08-02T20:27:51.075Z,41.41
2022-08-02T20:30:18.435Z,42.89
2022-08-02T20:32:52.588Z,42.67
2022-08-02T20:35:19.922Z,43.14
2022-08-02T20:40:34.743Z,43.17
2022-08-02T20:43:01.801Z,42.81
2022-08-02T20:45:29.198Z,43.70
2022-08-02T20:48:00.380Z,43.27
2022-08-02T20:50:30.288Z,44.02
2022-08-02T20:52:59.272Z,44.38
2022-08-02T20:55:26.196Z,44.47
2022-08-02T20:58:00.467Z,44.06
2022-08-02T21:00:27.998Z,44.75
2022-08-02T21:02:54.646Z,45.11
2022-08-02T21:05:26.921Z,45.62
2022-08-02T21:08:09.555Z,46.25
2022-08-02T21:10:41.693Z,45.33
2022-08-02T21:13:18.990Z,46.31
2022-08-02T21:15:50.007Z,45.72
2022-08-02T21:18:21.465Z,45.67
2022-08-02T21:20:53.174Z,45.42
2022-08-02T21:23:20.234Z,46.27
2022-08-02T21:25:57.117Z,46.04
2022-08-02T21:28:24.899Z,45.60
2022-08-02T21:31:12.258Z,46.31
2022-08-02T21:33:56.723Z,45.77
2022-08-02T21:36:31.812Z,46.69
2022-08-02T21:39:05.456Z,46.63
2022-08-02T21:44:22.054Z,47.00
2022-08-02T21:46:53.983Z,46.76
2022-08-02T21:49:40.511Z,47.52
2022-08-02T21:52:12.438Z,47.34
2022-08-02T21:54:39.629Z,47.47
2022-08-02T21:57:06.931Z,48.88
2022-08-02T21:59:33.778Z,49.39
2022-08-02T22:02:01.381Z,49.14
2022-08-02T22:04:28.101Z,48.69
2022-08-02T22:06:55.650Z,48.71
2022-08-02T22:09:42.306Z,49.86
2022-08-02T22:12:16.965Z,49.33
2022-08-02T22:14:49.476Z,50.03
2022-08-02T22:17:50.421Z,49.50
2022-08-02T22:20:09.238Z,50.30
2022-08-02T22:22:39.041Z,50.93
2022-08-02T22:25:06.199Z,50.58
2022-08-02T22:28:34.920Z,51.35
2022-08-02T22:30:35.209Z,51.04
2022-08-02T22:33:02.056Z,52.69
2022-08-02T22:35:41.832Z,52.01
2022-08-02T22:38:16.904Z,51.97
2022-08-02T22:40:45.831Z,53.16
2022-08-02T22:43:22.617Z,53.12
2022-08-02T22:45:50.118Z,52.88
2022-08-02T22:58:49.366Z,32.10
2022-08-02T22:59:03.343Z,46.97
2022-08-02T22:59:07.384Z,43.66
